sensor_id;sensor_type;location;lat;lon;timestamp;P1;durP1;ratioP1;P2;durP2;ratioP2
7813;SDS011;3952;48.364;16.022;2022-08-18T00:02:26;7.43;;;4.20;;
7813;SDS011;3952;48.364;16.022;2022-08-18T00:04:55;4.20;;;3.73;;
7813;SDS011;3952;48.364;16.022;2022-08-18T00:07:25;4.40;;;4.20;;
7813;SDS011;3952;48.364;16.022;2022-08-18T00:09:54;4.57;;;4.27;;
7813;SDS011;3952;48.364;16.022;2022-08-18T00:12:24;4.53;;;4.23;;
7813;SDS011;3952;48.364;16.022;2022-08-18T00:14:55;4.13;;;3.80;;
7813;SDS011;3952;48.364;16.022;2022-08-18T00:17:26;4.83;;;4.43;;
7813;SDS011;3952;48.364;16.022;2022-08-18T00:19:53;4.50;;;4.20;;
7813;SDS011;3952;48.364;16.022;2022-08-18T00:22:21;4.33;;;4.00;;
7813;SDS011;3952;48.364;16.022;2022-08-18T00:24:49;3.90;;;3.70;;
7813;SDS011;3952;48.364;16.022;2022-08-18T00:27:18;4.83;;;4.00;;
7813;SDS011;3952;48.364;16.022;2022-08-18T00:29:47;4.40;;;4.00;;
7813;SDS011;3952;48.364;16.022;2022-08-18T00:32:17;5.37;;;4.07;;
7813;SDS011;3952;48.364;16.022;2022-08-18T00:34:45;4.40;;;4.10;;
7813;SDS011;3952;48.364;16.022;2022-08-18T00:37:12;4.57;;;4.27;;
7813;SDS011;3952;48.364;16.022;2022-08-18T00:39:39;4.83;;;4.53;;
7813;SDS011;3952;48.364;16.022;2022-08-18T00:42:14;4.70;;;4.30;;
7813;SDS011;3952;48.364;16.022;2022-08-18T00:44:43;4.33;;;3.97;;
7813;SDS011;3952;48.364;16.022;2022-08-18T00:47:11;4.67;;;4.20;;
7813;SDS011;3952;48.364;16.022;2022-08-18T00:49:40;4.50;;;4.10;;
7813;SDS011;3952;48.364;16.022;2022-08-18T00:52:10;4.57;;;4.27;;
7813;SDS011;3952;48.364;16.022;2022-08-18T00:54:39;4.50;;;4.27;;
7813;SDS011;3952;48.364;16.022;2022-08-18T00:57:09;4.60;;;4.30;;
7813;SDS011;3952;48.364;16.022;2022-08-18T00:59:38;4.83;;;4.50;;
7813;SDS011;3952;48.364;16.022;2022-08-18T01:02:11;5.03;;;4.43;;
7813;SDS011;3952;48.364;16.022;2022-08-18T01:04:46;5.10;;;4.40;;
7813;SDS011;3952;48.364;16.022;2022-08-18T01:07:17;3.93;;;3.63;;
7813;SDS011;3952;48.364;16.022;2022-08-18T01:09:47;4.10;;;3.90;;
7813;SDS011;3952;48.364;16.022;2022-08-18T01:12:16;5.97;;;4.27;;
7813;SDS011;3952;48.364;16.022;2022-08-18T01:14:43;4.27;;;3.90;;
7813;SDS011;3952;48.364;16.022;2022-08-18T01:17:12;4.73;;;4.17;;
7813;SDS011;3952;48.364;16.022;2022-08-18T01:19:58;4.60;;;4.37;;
7813;SDS011;3952;48.364;16.022;2022-08-18T01:22:55;4.60;;;4.30;;
7813;SDS011;3952;48.364;16.022;2022-08-18T01:25:31;4.37;;;4.13;;
7813;SDS011;3952;48.364;16.022;2022-08-18T01:28:16;7.37;;;4.80;;
7813;SDS011;3952;48.364;16.022;2022-08-18T01:30:46;4.90;;;4.37;;
7813;SDS011;3952;48.364;16.022;2022-08-18T01:33:15;4.60;;;4.30;;
7813;SDS011;3952;48.364;16.022;2022-08-18T01:35:44;5.27;;;4.97;;
7813;SDS011;3952;48.364;16.022;2022-08-18T01:38:17;5.17;;;4.87;;
7813;SDS011;3952;48.364;16.022;2022-08-18T01:40:47;5.07;;;4.67;;
7813;SDS011;3952;48.364;16.022;2022-08-18T01:43:15;5.10;;;4.70;;
7813;SDS011;3952;48.364;16.022;2022-08-18T01:45:42;5.03;;;4.63;;
7813;SDS011;3952;48.364;16.022;2022-08-18T01:48:09;5.17;;;4.77;;
7813;SDS011;3952;48.364;16.022;2022-08-18T01:50:37;5.13;;;4.73;;
7813;SDS011;3952;48.364;16.022;2022-08-18T01:53:07;6.70;;;5.07;;
7813;SDS011;3952;48.364;16.022;2022-08-18T01:55:38;5.00;;;4.77;;
7813;SDS011;3952;48.364;16.022;2022-08-18T01:58:09;5.33;;;4.93;;
7813;SDS011;3952;48.364;16.022;2022-08-18T02:00:37;5.03;;;4.67;;
7813;SDS011;3952;48.364;16.022;2022-08-18T02:03:07;5.70;;;5.23;;
7813;SDS011;3952;48.364;16.022;2022-08-18T02:05:38;5.37;;;4.97;;
7813;SDS011;3952;48.364;16.022;2022-08-18T02:08:09;6.33;;;5.77;;
7813;SDS011;3952;48.364;16.022;2022-08-18T02:10:39;5.40;;;5.10;;
7813;SDS011;3952;48.364;16.022;2022-08-18T02:13:07;5.40;;;4.90;;
7813;SDS011;3952;48.364;16.022;2022-08-18T02:15:34;5.63;;;5.33;;
7813;SDS011;3952;48.364;16.022;2022-08-18T02:18:02;5.20;;;4.90;;
7813;SDS011;3952;48.364;16.022;2022-08-18T02:20:29;5.50;;;5.00;;
7813;SDS011;3952;48.364;16.022;2022-08-18T02:22:56;5.37;;;4.97;;
7813;SDS011;3952;48.364;16.022;2022-08-18T02:25:23;5.83;;;5.43;;
7813;SDS011;3952;48.364;16.022;2022-08-18T02:27:52;5.23;;;4.93;;
7813;SDS011;3952;48.364;16.022;2022-08-18T02:30:19;5.13;;;4.83;;
7813;SDS011;3952;48.364;16.022;2022-08-18T02:32:47;4.90;;;4.60;;
7813;SDS011;3952;48.364;16.022;2022-08-18T02:35:14;5.07;;;4.80;;
7813;SDS011;3952;48.364;16.022;2022-08-18T02:37:42;5.33;;;4.90;;
7813;SDS011;3952;48.364;16.022;2022-08-18T02:40:12;4.63;;;4.33;;
7813;SDS011;3952;48.364;16.022;2022-08-18T02:42:39;5.30;;;5.00;;
7813;SDS011;3952;48.364;16.022;2022-08-18T02:45:09;6.83;;;5.20;;
7813;SDS011;3952;48.364;16.022;2022-08-18T02:47:37;5.23;;;4.93;;
7813;SDS011;3952;48.364;16.022;2022-08-18T02:50:05;5.70;;;5.00;;
7813;SDS011;3952;48.364;16.022;2022-08-18T02:52:34;6.80;;;5.60;;
7813;SDS011;3952;48.364;16.022;2022-08-18T02:55:01;7.30;;;5.57;;
7813;SDS011;3952;48.364;16.022;2022-08-18T02:57:29;5.60;;;5.30;;
7813;SDS011;3952;48.364;16.022;2022-08-18T02:59:56;5.67;;;5.17;;
7813;SDS011;3952;48.364;16.022;2022-08-18T03:02:26;5.47;;;5.07;;
7813;SDS011;3952;48.364;16.022;2022-08-18T03:04:54;5.23;;;4.90;;
7813;SDS011;3952;48.364;16.022;2022-08-18T03:07:21;5.70;;;5.20;;
7813;SDS011;3952;48.364;16.022;2022-08-18T03:09:49;5.90;;;5.43;;
7813;SDS011;3952;48.364;16.022;2022-08-18T03:12:17;5.23;;;5.03;;
7813;SDS011;3952;48.364;16.022;2022-08-18T03:14:44;5.97;;;5.63;;
7813;SDS011;3952;48.364;16.022;2022-08-18T03:17:12;5.63;;;5.23;;
7813;SDS011;3952;48.364;16.022;2022-08-18T03:19:41;8.03;;;5.20;;
7813;SDS011;3952;48.364;16.022;2022-08-18T03:22:10;5.50;;;5.20;;
7813;SDS011;3952;48.364;16.022;2022-08-18T03:24:38;5.40;;;5.10;;
7813;SDS011;3952;48.364;16.022;2022-08-18T03:27:05;5.47;;;5.17;;
7813;SDS011;3952;48.364;16.022;2022-08-18T03:29:33;5.30;;;4.90;;
7813;SDS011;3952;48.364;16.022;2022-08-18T03:32:01;5.70;;;5.20;;
7813;SDS011;3952;48.364;16.022;2022-08-18T03:34:31;5.83;;;5.33;;
7813;SDS011;3952;48.364;16.022;2022-08-18T03:37:00;5.87;;;5.47;;
7813;SDS011;3952;48.364;16.022;2022-08-18T03:39:27;5.07;;;4.77;;
7813;SDS011;3952;48.364;16.022;2022-08-18T03:41:54;5.40;;;4.90;;
7813;SDS011;3952;48.364;16.022;2022-08-18T03:44:23;5.10;;;4.80;;
7813;SDS011;3952;48.364;16.022;2022-08-18T03:46:50;6.73;;;5.17;;
7813;SDS011;3952;48.364;16.022;2022-08-18T03:49:17;5.97;;;5.47;;
7813;SDS011;3952;48.364;16.022;2022-08-18T03:51:46;5.70;;;5.30;;
7813;SDS011;3952;48.364;16.022;2022-08-18T03:54:17;5.53;;;5.23;;
7813;SDS011;3952;48.364;16.022;2022-08-18T03:56:45;6.00;;;5.50;;
7813;SDS011;3952;48.364;16.022;2022-08-18T03:59:15;5.93;;;5.53;;
7813;SDS011;3952;48.364;16.022;2022-08-18T04:01:44;5.50;;;5.20;;
7813;SDS011;3952;48.364;16.022;2022-08-18T04:04:14;5.70;;;5.13;;
7813;SDS011;3952;48.364;16.022;2022-08-18T04:06:43;6.20;;;5.20;;
7813;SDS011;3952;48.364;16.022;2022-08-18T04:09:14;6.17;;;5.87;;
7813;SDS011;3952;48.364;16.022;2022-08-18T04:11:44;5.60;;;5.17;;
7813;SDS011;3952;48.364;16.022;2022-08-18T04:14:14;6.23;;;5.77;;
7813;SDS011;3952;48.364;16.022;2022-08-18T04:16:45;6.37;;;5.77;;
7813;SDS011;3952;48.364;16.022;2022-08-18T04:19:13;6.50;;;5.57;;
7813;SDS011;3952;48.364;16.022;2022-08-18T04:21:43;5.60;;;5.23;;
7813;SDS011;3952;48.364;16.022;2022-08-18T04:24:11;5.63;;;5.33;;
7813;SDS011;3952;48.364;16.022;2022-08-18T04:26:43;6.07;;;5.63;;
7813;SDS011;3952;48.364;16.022;2022-08-18T04:29:12;6.00;;;5.60;;
7813;SDS011;3952;48.364;16.022;2022-08-18T04:31:42;6.30;;;5.80;;
7813;SDS011;3952;48.364;16.022;2022-08-18T04:34:09;5.83;;;5.43;;
7813;SDS011;3952;48.364;16.022;2022-08-18T04:36:37;5.67;;;5.37;;
7813;SDS011;3952;48.364;16.022;2022-08-18T04:39:06;5.80;;;5.40;;
7813;SDS011;3952;48.364;16.022;2022-08-18T04:41:36;6.13;;;5.83;;
7813;SDS011;3952;48.364;16.022;2022-08-18T04:44:07;5.67;;;5.27;;
7813;SDS011;3952;48.364;16.022;2022-08-18T04:46:37;6.33;;;5.47;;
7813;SDS011;3952;48.364;16.022;2022-08-18T04:49:05;6.10;;;5.60;;
7813;SDS011;3952;48.364;16.022;2022-08-18T04:51:35;8.10;;;6.23;;
7813;SDS011;3952;48.364;16.022;2022-08-18T04:54:05;7.13;;;6.57;;
7813;SDS011;3952;48.364;16.022;2022-08-18T04:56:32;7.00;;;6.00;;
7813;SDS011;3952;48.364;16.022;2022-08-18T04:59:03;6.23;;;5.63;;
7813;SDS011;3952;48.364;16.022;2022-08-18T05:01:34;8.80;;;6.07;;
7813;SDS011;3952;48.364;16.022;2022-08-18T05:04:03;6.27;;;5.87;;
7813;SDS011;3952;48.364;16.022;2022-08-18T05:06:31;6.30;;;5.97;;
7813;SDS011;3952;48.364;16.022;2022-08-18T05:09:01;6.70;;;6.13;;
7813;SDS011;3952;48.364;16.022;2022-08-18T05:11:30;7.07;;;6.47;;
7813;SDS011;3952;48.364;16.022;2022-08-18T05:13:59;6.90;;;6.30;;
7813;SDS011;3952;48.364;16.022;2022-08-18T05:16:27;6.60;;;6.07;;
7813;SDS011;3952;48.364;16.022;2022-08-18T05:19:02;6.40;;;6.00;;
7813;SDS011;3952;48.364;16.022;2022-08-18T05:21:30;5.97;;;5.57;;
7813;SDS011;3952;48.364;16.022;2022-08-18T05:23:58;6.43;;;6.03;;
7813;SDS011;3952;48.364;16.022;2022-08-18T05:26:26;6.17;;;5.87;;
7813;SDS011;3952;48.364;16.022;2022-08-18T05:28:53;6.57;;;5.97;;
7813;SDS011;3952;48.364;16.022;2022-08-18T05:31:21;6.50;;;5.97;;
7813;SDS011;3952;48.364;16.022;2022-08-18T05:33:51;6.33;;;5.83;;
7813;SDS011;3952;48.364;16.022;2022-08-18T05:36:24;7.20;;;6.63;;
7813;SDS011;3952;48.364;16.022;2022-08-18T05:39:02;6.30;;;5.87;;
7813;SDS011;3952;48.364;16.022;2022-08-18T05:41:38;6.70;;;6.30;;
7813;SDS011;3952;48.364;16.022;2022-08-18T05:44:09;6.30;;;6.00;;
7813;SDS011;3952;48.364;16.022;2022-08-18T05:46:42;7.20;;;6.80;;
7813;SDS011;3952;48.364;16.022;2022-08-18T05:49:13;7.20;;;6.60;;
7813;SDS011;3952;48.364;16.022;2022-08-18T05:51:44;7.30;;;6.87;;
7813;SDS011;3952;48.364;16.022;2022-08-18T05:54:13;7.43;;;6.77;;
7813;SDS011;3952;48.364;16.022;2022-08-18T05:57:00;6.60;;;6.00;;
7813;SDS011;3952;48.364;16.022;2022-08-18T05:59:32;7.30;;;6.90;;
7813;SDS011;3952;48.364;16.022;2022-08-18T06:02:03;6.90;;;6.30;;
7813;SDS011;3952;48.364;16.022;2022-08-18T06:04:39;7.77;;;7.10;;
7813;SDS011;3952;48.364;16.022;2022-08-18T06:07:10;9.70;;;7.10;;
7813;SDS011;3952;48.364;16.022;2022-08-18T06:09:42;7.77;;;6.80;;
7813;SDS011;3952;48.364;16.022;2022-08-18T06:12:25;7.20;;;6.70;;
7813;SDS011;3952;48.364;16.022;2022-08-18T06:14:59;6.77;;;6.37;;
7813;SDS011;3952;48.364;16.022;2022-08-18T06:17:57;8.77;;;6.77;;
7813;SDS011;3952;48.364;16.022;2022-08-18T06:20:59;7.60;;;7.10;;
7813;SDS011;3952;48.364;16.022;2022-08-18T06:23:53;9.43;;;7.03;;
7813;SDS011;3952;48.364;16.022;2022-08-18T06:26:30;7.83;;;7.03;;
7813;SDS011;3952;48.364;16.022;2022-08-18T06:29:08;7.33;;;6.73;;
7813;SDS011;3952;48.364;16.022;2022-08-18T06:31:48;7.70;;;7.10;;
7813;SDS011;3952;48.364;16.022;2022-08-18T06:34:24;8.13;;;7.10;;
7813;SDS011;3952;48.364;16.022;2022-08-18T06:37:02;8.47;;;6.73;;
7813;SDS011;3952;48.364;16.022;2022-08-18T06:39:41;7.00;;;6.50;;
7813;SDS011;3952;48.364;16.022;2022-08-18T06:42:11;7.17;;;6.47;;
7813;SDS011;3952;48.364;16.022;2022-08-18T06:44:42;6.20;;;5.90;;
7813;SDS011;3952;48.364;16.022;2022-08-18T06:47:16;6.50;;;6.10;;
7813;SDS011;3952;48.364;16.022;2022-08-18T06:50:02;7.23;;;6.80;;
7813;SDS011;3952;48.364;16.022;2022-08-18T06:52:33;7.40;;;6.87;;
7813;SDS011;3952;48.364;16.022;2022-08-18T06:55:04;6.60;;;6.10;;
7813;SDS011;3952;48.364;16.022;2022-08-18T06:57:34;7.30;;;6.70;;
7813;SDS011;3952;48.364;16.022;2022-08-18T07:00:05;6.77;;;6.27;;
7813;SDS011;3952;48.364;16.022;2022-08-18T07:02:47;6.60;;;6.20;;
7813;SDS011;3952;48.364;16.022;2022-08-18T07:05:22;7.13;;;6.67;;
7813;SDS011;3952;48.364;16.022;2022-08-18T07:08:04;6.83;;;6.30;;
7813;SDS011;3952;48.364;16.022;2022-08-18T07:10:38;6.83;;;6.43;;
7813;SDS011;3952;48.364;16.022;2022-08-18T07:13:13;6.70;;;6.30;;
7813;SDS011;3952;48.364;16.022;2022-08-18T07:15:47;6.00;;;5.63;;
7813;SDS011;3952;48.364;16.022;2022-08-18T07:18:19;7.15;;;6.55;;
7813;SDS011;3952;48.364;16.022;2022-08-18T07:20:49;5.80;;;5.50;;
7813;SDS011;3952;48.364;16.022;2022-08-18T07:23:29;7.00;;;6.57;;
7813;SDS011;3952;48.364;16.022;2022-08-18T07:26:02;280.45;;;22.67;;
7813;SDS011;3952;48.364;16.022;2022-08-18T07:28:37;105.70;;;13.20;;
7813;SDS011;3952;48.364;16.022;2022-08-18T07:31:12;6.50;;;6.00;;
7813;SDS011;3952;48.364;16.022;2022-08-18T07:33:50;6.50;;;5.93;;
7813;SDS011;3952;48.364;16.022;2022-08-18T07:36:22;6.53;;;5.97;;
7813;SDS011;3952;48.364;16.022;2022-08-18T07:38:53;5.78;;;5.28;;
7813;SDS011;3952;48.364;16.022;2022-08-18T07:41:29;5.70;;;5.30;;
7813;SDS011;3952;48.364;16.022;2022-08-18T07:44:06;5.78;;;5.47;;
7813;SDS011;3952;48.364;16.022;2022-08-18T07:46:43;6.30;;;5.72;;
7813;SDS011;3952;48.364;16.022;2022-08-18T07:49:17;5.97;;;5.68;;
7813;SDS011;3952;48.364;16.022;2022-08-18T07:51:47;6.72;;;6.07;;
7813;SDS011;3952;48.364;16.022;2022-08-18T07:54:27;5.65;;;5.35;;
7813;SDS011;3952;48.364;16.022;2022-08-18T07:57:12;5.32;;;5.03;;
7813;SDS011;3952;48.364;16.022;2022-08-18T07:59:47;15.63;;;6.88;;
7813;SDS011;3952;48.364;16.022;2022-08-18T08:02:24;6.20;;;5.80;;
7813;SDS011;3952;48.364;16.022;2022-08-18T08:05:04;5.63;;;5.28;;
7813;SDS011;3952;48.364;16.022;2022-08-18T08:07:41;7.03;;;5.68;;
7813;SDS011;3952;48.364;16.022;2022-08-18T08:13:04;7.03;;;5.72;;
7813;SDS011;3952;48.364;16.022;2022-08-18T08:15:45;5.80;;;5.43;;
7813;SDS011;3952;48.364;16.022;2022-08-18T08:18:20;5.97;;;5.47;;
7813;SDS011;3952;48.364;16.022;2022-08-18T08:21:00;5.45;;;4.93;;
7813;SDS011;3952;48.364;16.022;2022-08-18T08:23:33;7.43;;;5.05;;
7813;SDS011;3952;48.364;16.022;2022-08-18T08:29:06;5.43;;;4.70;;
7813;SDS011;3952;48.364;16.022;2022-08-18T08:31:44;5.50;;;5.10;;
7813;SDS011;3952;48.364;16.022;2022-08-18T08:34:17;5.35;;;5.05;;
7813;SDS011;3952;48.364;16.022;2022-08-18T08:36:52;5.88;;;5.45;;
7813;SDS011;3952;48.364;16.022;2022-08-18T08:39:26;5.18;;;4.78;;
7813;SDS011;3952;48.364;16.022;2022-08-18T08:42:05;5.18;;;4.80;;
7813;SDS011;3952;48.364;16.022;2022-08-18T08:44:39;5.10;;;4.63;;
7813;SDS011;3952;48.364;16.022;2022-08-18T08:47:15;5.05;;;4.70;;
7813;SDS011;3952;48.364;16.022;2022-08-18T08:49:46;5.40;;;5.10;;
7813;SDS011;3952;48.364;16.022;2022-08-18T08:52:18;5.70;;;5.10;;
7813;SDS011;3952;48.364;16.022;2022-08-18T08:54:50;5.78;;;5.03;;
7813;SDS011;3952;48.364;16.022;2022-08-18T08:57:25;5.28;;;4.80;;
7813;SDS011;3952;48.364;16.022;2022-08-18T08:59:59;7.50;;;4.93;;
7813;SDS011;3952;48.364;16.022;2022-08-18T09:02:32;4.93;;;4.63;;
7813;SDS011;3952;48.364;16.022;2022-08-18T09:05:17;5.13;;;4.82;;
7813;SDS011;3952;48.364;16.022;2022-08-18T09:07:58;5.13;;;4.70;;
7813;SDS011;3952;48.364;16.022;2022-08-18T09:10:50;4.93;;;4.63;;
7813;SDS011;3952;48.364;16.022;2022-08-18T09:13:42;5.70;;;5.30;;
7813;SDS011;3952;48.364;16.022;2022-08-18T09:16:36;5.30;;;5.00;;
7813;SDS011;3952;48.364;16.022;2022-08-18T09:19:18;6.78;;;4.60;;
7813;SDS011;3952;48.364;16.022;2022-08-18T09:21:57;4.93;;;4.50;;
7813;SDS011;3952;48.364;16.022;2022-08-18T09:24:30;5.03;;;4.60;;
7813;SDS011;3952;48.364;16.022;2022-08-18T09:27:14;4.60;;;4.40;;
7813;SDS011;3952;48.364;16.022;2022-08-18T09:29:53;4.82;;;4.47;;
7813;SDS011;3952;48.364;16.022;2022-08-18T09:32:36;5.22;;;4.40;;
7813;SDS011;3952;48.364;16.022;2022-08-18T09:35:17;4.90;;;4.70;;
7813;SDS011;3952;48.364;16.022;2022-08-18T09:38:17;4.50;;;4.30;;
7813;SDS011;3952;48.364;16.022;2022-08-18T09:41:06;5.88;;;4.43;;
7813;SDS011;3952;48.364;16.022;2022-08-18T09:43:57;5.07;;;4.68;;
7813;SDS011;3952;48.364;16.022;2022-08-18T09:46:49;4.85;;;4.50;;
7813;SDS011;3952;48.364;16.022;2022-08-18T09:49:39;4.82;;;4.63;;
7813;SDS011;3952;48.364;16.022;2022-08-18T09:55:35;5.20;;;4.10;;
7813;SDS011;3952;48.364;16.022;2022-08-18T09:58:16;4.60;;;4.30;;
7813;SDS011;3952;48.364;16.022;2022-08-18T10:00:45;4.82;;;4.53;;
7813;SDS011;3952;48.364;16.022;2022-08-18T10:06:46;6.07;;;4.32;;
7813;SDS011;3952;48.364;16.022;2022-08-18T10:12:06;4.70;;;4.47;;
7813;SDS011;3952;48.364;16.022;2022-08-18T10:14:55;5.43;;;5.05;;
7813;SDS011;3952;48.364;16.022;2022-08-18T10:17:43;5.30;;;4.53;;
7813;SDS011;3952;48.364;16.022;2022-08-18T10:20:22;4.63;;;4.30;;
7813;SDS011;3952;48.364;16.022;2022-08-18T10:22:58;4.93;;;4.50;;
7813;SDS011;3952;48.364;16.022;2022-08-18T10:25:30;4.60;;;4.30;;
7813;SDS011;3952;48.364;16.022;2022-08-18T10:27:59;4.18;;;3.95;;
7813;SDS011;3952;48.364;16.022;2022-08-18T10:30:43;4.43;;;4.10;;
7813;SDS011;3952;48.364;16.022;2022-08-18T10:36:34;5.30;;;4.80;;
7813;SDS011;3952;48.364;16.022;2022-08-18T10:39:16;4.60;;;4.22;;
7813;SDS011;3952;48.364;16.022;2022-08-18T10:41:53;4.45;;;4.25;;
7813;SDS011;3952;48.364;16.022;2022-08-18T10:44:25;4.70;;;4.47;;
7813;SDS011;3952;48.364;16.022;2022-08-18T10:46:56;4.05;;;3.88;;
7813;SDS011;3952;48.364;16.022;2022-08-18T10:49:25;4.57;;;4.28;;
7813;SDS011;3952;48.364;16.022;2022-08-18T10:51:59;4.75;;;4.40;;
7813;SDS011;3952;48.364;16.022;2022-08-18T10:54:43;4.53;;;4.22;;
7813;SDS011;3952;48.364;16.022;2022-08-18T10:57:31;9.70;;;4.68;;
7813;SDS011;3952;48.364;16.022;2022-08-18T11:00:07;4.90;;;4.40;;
7813;SDS011;3952;48.364;16.022;2022-08-18T11:02:47;4.57;;;4.28;;
7813;SDS011;3952;48.364;16.022;2022-08-18T11:05:28;4.47;;;4.07;;
7813;SDS011;3952;48.364;16.022;2022-08-18T11:07:57;4.28;;;4.07;;
7813;SDS011;3952;48.364;16.022;2022-08-18T11:10:36;5.93;;;4.47;;
7813;SDS011;3952;48.364;16.022;2022-08-18T11:13:09;8.95;;;4.63;;
7813;SDS011;3952;48.364;16.022;2022-08-18T11:15:48;32.67;;;5.88;;
7813;SDS011;3952;48.364;16.022;2022-08-18T11:18:31;4.97;;;4.20;;
7813;SDS011;3952;48.364;16.022;2022-08-18T11:24:00;4.15;;;3.90;;
7813;SDS011;3952;48.364;16.022;2022-08-18T11:26:35;5.97;;;4.50;;
7813;SDS011;3952;48.364;16.022;2022-08-18T11:31:55;4.50;;;4.10;;
7813;SDS011;3952;48.364;16.022;2022-08-18T11:34:27;4.35;;;4.05;;
7813;SDS011;3952;48.364;16.022;2022-08-18T11:36:58;5.57;;;4.10;;
7813;SDS011;3952;48.364;16.022;2022-08-18T11:39:28;4.38;;;4.00;;
7813;SDS011;3952;48.364;16.022;2022-08-18T11:41:58;11.15;;;5.07;;
7813;SDS011;3952;48.364;16.022;2022-08-18T11:44:28;4.32;;;4.03;;
7813;SDS011;3952;48.364;16.022;2022-08-18T11:47:07;4.53;;;4.32;;
7813;SDS011;3952;48.364;16.022;2022-08-18T11:49:52;4.63;;;4.43;;
7813;SDS011;3952;48.364;16.022;2022-08-18T11:52:25;5.38;;;4.40;;
7813;SDS011;3952;48.364;16.022;2022-08-18T11:54:57;5.03;;;4.20;;
7813;SDS011;3952;48.364;16.022;2022-08-18T12:03:20;4.53;;;4.20;;
7813;SDS011;3952;48.364;16.022;2022-08-18T12:05:53;5.22;;;4.80;;
7813;SDS011;3952;48.364;16.022;2022-08-18T12:08:27;4.63;;;4.40;;
7813;SDS011;3952;48.364;16.022;2022-08-18T12:11:03;4.70;;;4.50;;
7813;SDS011;3952;48.364;16.022;2022-08-18T12:13:42;4.93;;;4.63;;
7813;SDS011;3952;48.364;16.022;2022-08-18T12:16:12;5.22;;;4.50;;
7813;SDS011;3952;48.364;16.022;2022-08-18T12:18:41;4.45;;;4.07;;
7813;SDS011;3952;48.364;16.022;2022-08-18T12:21:09;4.55;;;4.22;;
7813;SDS011;3952;48.364;16.022;2022-08-18T12:23:38;4.80;;;4.40;;
7813;SDS011;3952;48.364;16.022;2022-08-18T12:26:07;5.18;;;4.70;;
7813;SDS011;3952;48.364;16.022;2022-08-18T12:28:35;5.15;;;4.75;;
7813;SDS011;3952;48.364;16.022;2022-08-18T12:31:05;6.03;;;4.68;;
7813;SDS011;3952;48.364;16.022;2022-08-18T12:33:33;4.75;;;4.32;;
7813;SDS011;3952;48.364;16.022;2022-08-18T12:36:00;6.97;;;4.78;;
7813;SDS011;3952;48.364;16.022;2022-08-18T12:38:28;5.28;;;4.80;;
7813;SDS011;3952;48.364;16.022;2022-08-18T12:40:56;5.10;;;4.90;;
7813;SDS011;3952;48.364;16.022;2022-08-18T12:43:24;5.28;;;4.90;;
7813;SDS011;3952;48.364;16.022;2022-08-18T12:45:51;5.32;;;4.88;;
7813;SDS011;3952;48.364;16.022;2022-08-18T12:48:20;5.30;;;4.90;;
7813;SDS011;3952;48.364;16.022;2022-08-18T12:50:47;5.40;;;4.97;;
7813;SDS011;3952;48.364;16.022;2022-08-18T12:53:14;5.70;;;5.20;;
7813;SDS011;3952;48.364;16.022;2022-08-18T12:55:42;5.97;;;5.50;;
7813;SDS011;3952;48.364;16.022;2022-08-18T12:58:09;5.78;;;5.28;;
7813;SDS011;3952;48.364;16.022;2022-08-18T13:00:37;5.45;;;5.10;;
7813;SDS011;3952;48.364;16.022;2022-08-18T13:03:05;6.38;;;5.93;;
7813;SDS011;3952;48.364;16.022;2022-08-18T13:05:35;5.13;;;4.72;;
7813;SDS011;3952;48.364;16.022;2022-08-18T13:08:03;5.18;;;4.72;;
7813;SDS011;3952;48.364;16.022;2022-08-18T13:10:35;6.03;;;5.32;;
7813;SDS011;3952;48.364;16.022;2022-08-18T13:13:02;6.55;;;5.47;;
7813;SDS011;3952;48.364;16.022;2022-08-18T13:15:30;5.35;;;4.90;;
7813;SDS011;3952;48.364;16.022;2022-08-18T13:17:57;4.82;;;4.53;;
7813;SDS011;3952;48.364;16.022;2022-08-18T13:20:27;8.07;;;5.05;;
7813;SDS011;3952;48.364;16.022;2022-08-18T13:22:56;7.63;;;4.75;;
7813;SDS011;3952;48.364;16.022;2022-08-18T13:25:23;4.95;;;4.53;;
7813;SDS011;3952;48.364;16.022;2022-08-18T13:27:51;4.65;;;4.35;;
7813;SDS011;3952;48.364;16.022;2022-08-18T13:30:19;5.30;;;4.35;;
7813;SDS011;3952;48.364;16.022;2022-08-18T13:32:47;5.15;;;4.65;;
7813;SDS011;3952;48.364;16.022;2022-08-18T13:35:15;4.85;;;4.50;;
7813;SDS011;3952;48.364;16.022;2022-08-18T13:37:43;5.72;;;4.75;;
7813;SDS011;3952;48.364;16.022;2022-08-18T13:40:12;6.20;;;4.53;;
7813;SDS011;3952;48.364;16.022;2022-08-18T13:42:40;15.88;;;5.18;;
7813;SDS011;3952;48.364;16.022;2022-08-18T13:45:10;4.63;;;4.22;;
7813;SDS011;3952;48.364;16.022;2022-08-18T13:47:38;4.10;;;3.65;;
7813;SDS011;3952;48.364;16.022;2022-08-18T13:50:07;4.38;;;3.95;;
7813;SDS011;3952;48.364;16.022;2022-08-18T13:52:35;5.50;;;3.70;;
7813;SDS011;3952;48.364;16.022;2022-08-18T13:55:05;7.72;;;4.20;;
7813;SDS011;3952;48.364;16.022;2022-08-18T13:57:37;5.30;;;3.90;;
7813;SDS011;3952;48.364;16.022;2022-08-18T14:00:07;4.90;;;3.90;;
7813;SDS011;3952;48.364;16.022;2022-08-18T14:02:38;3.72;;;3.53;;
7813;SDS011;3952;48.364;16.022;2022-08-18T14:05:06;5.03;;;3.38;;
7813;SDS011;3952;48.364;16.022;2022-08-18T14:07:34;9.20;;;3.60;;
7813;SDS011;3952;48.364;16.022;2022-08-18T14:10:02;5.47;;;3.72;;
7813;SDS011;3952;48.364;16.022;2022-08-18T14:12:33;5.53;;;3.42;;
7813;SDS011;3952;48.364;16.022;2022-08-18T14:15:05;4.60;;;3.42;;
7813;SDS011;3952;48.364;16.022;2022-08-18T14:17:34;4.25;;;3.55;;
7813;SDS011;3952;48.364;16.022;2022-08-18T14:20:02;7.28;;;3.38;;
7813;SDS011;3952;48.364;16.022;2022-08-18T14:22:49;5.45;;;3.40;;
7813;SDS011;3952;48.364;16.022;2022-08-18T14:25:35;12.48;;;3.78;;
7813;SDS011;3952;48.364;16.022;2022-08-18T14:28:20;4.07;;;3.67;;
7813;SDS011;3952;48.364;16.022;2022-08-18T14:30:49;4.85;;;3.63;;
7813;SDS011;3952;48.364;16.022;2022-08-18T14:33:17;3.75;;;3.45;;
7813;SDS011;3952;48.364;16.022;2022-08-18T14:35:46;5.38;;;3.53;;
7813;SDS011;3952;48.364;16.022;2022-08-18T14:38:14;10.00;;;3.78;;
7813;SDS011;3952;48.364;16.022;2022-08-18T14:40:42;6.60;;;3.38;;
7813;SDS011;3952;48.364;16.022;2022-08-18T14:43:12;3.85;;;3.55;;
7813;SDS011;3952;48.364;16.022;2022-08-18T14:45:40;10.50;;;4.18;;
7813;SDS011;3952;48.364;16.022;2022-08-18T14:48:13;8.80;;;3.88;;
7813;SDS011;3952;48.364;16.022;2022-08-18T14:50:45;3.78;;;3.55;;
7813;SDS011;3952;48.364;16.022;2022-08-18T14:53:14;10.68;;;3.85;;
7813;SDS011;3952;48.364;16.022;2022-08-18T14:55:44;12.15;;;3.50;;
7813;SDS011;3952;48.364;16.022;2022-08-18T14:58:12;5.97;;;3.20;;
7813;SDS011;3952;48.364;16.022;2022-08-18T15:00:40;7.88;;;3.67;;
7813;SDS011;3952;48.364;16.022;2022-08-18T15:03:07;4.13;;;3.38;;
7813;SDS011;3952;48.364;16.022;2022-08-18T15:05:36;4.53;;;3.50;;
7813;SDS011;3952;48.364;16.022;2022-08-18T15:08:03;5.50;;;3.28;;
7813;SDS011;3952;48.364;16.022;2022-08-18T15:10:31;4.50;;;3.50;;
7813;SDS011;3952;48.364;16.022;2022-08-18T15:12:58;3.38;;;3.17;;
7813;SDS011;3952;48.364;16.022;2022-08-18T15:15:26;4.30;;;3.50;;
7813;SDS011;3952;48.364;16.022;2022-08-18T15:17:55;4.53;;;3.28;;
7813;SDS011;3952;48.364;16.022;2022-08-18T15:20:24;4.07;;;3.40;;
7813;SDS011;3952;48.364;16.022;2022-08-18T15:22:53;3.60;;;3.30;;
7813;SDS011;3952;48.364;16.022;2022-08-18T15:25:37;5.30;;;3.60;;
7813;SDS011;3952;48.364;16.022;2022-08-18T15:28:09;7.60;;;3.78;;
7813;SDS011;3952;48.364;16.022;2022-08-18T15:30:39;6.78;;;3.65;;
7813;SDS011;3952;48.364;16.022;2022-08-18T15:33:08;3.53;;;3.20;;
7813;SDS011;3952;48.364;16.022;2022-08-18T15:35:36;3.40;;;3.03;;
7813;SDS011;3952;48.364;16.022;2022-08-18T15:38:06;3.75;;;3.25;;
7813;SDS011;3952;48.364;16.022;2022-08-18T15:40:33;3.47;;;3.15;;
7813;SDS011;3952;48.364;16.022;2022-08-18T15:43:00;3.80;;;3.03;;
7813;SDS011;3952;48.364;16.022;2022-08-18T15:45:34;5.70;;;3.38;;
7813;SDS011;3952;48.364;16.022;2022-08-18T15:48:04;3.83;;;3.10;;
7813;SDS011;3952;48.364;16.022;2022-08-18T15:50:31;8.77;;;3.70;;
7813;SDS011;3952;48.364;16.022;2022-08-18T15:52:59;3.78;;;3.17;;
7813;SDS011;3952;48.364;16.022;2022-08-18T15:55:31;6.68;;;3.38;;
7813;SDS011;3952;48.364;16.022;2022-08-18T15:58:00;32.35;;;4.85;;
7813;SDS011;3952;48.364;16.022;2022-08-18T16:00:28;42.45;;;5.15;;
7813;SDS011;3952;48.364;16.022;2022-08-18T16:02:57;13.07;;;3.97;;